sensor_id;sensor_type;location;lat;lon;timestamp;P1;durP1;ratioP1;P2;durP2;ratioP2
19193;SDS011;9729;52.296;13.260;2023-02-20T00:00:03;8.10;;;3.47;;
19193;SDS011;9729;52.296;13.260;2023-02-20T00:02:31;11.63;;;4.07;;
19193;SDS011;9729;52.296;13.260;2023-02-20T00:04:57;9.83;;;3.27;;
19193;SDS011;9729;52.296;13.260;2023-02-20T00:07:24;7.70;;;3.33;;
19193;SDS011;9729;52.296;13.260;2023-02-20T00:09:50;7.97;;;3.70;;
19193;SDS011;9729;52.296;13.260;2023-02-20T00:12:18;6.73;;;4.17;;
19193;SDS011;9729;52.296;13.260;2023-02-20T00:14:44;9.60;;;4.23;;
19193;SDS011;9729;52.296;13.260;2023-02-20T00:17:13;11.13;;;4.13;;
19193;SDS011;9729;52.296;13.260;2023-02-20T00:19:39;8.30;;;4.30;;
19193;SDS011;9729;52.296;13.260;2023-02-20T00:22:06;10.67;;;4.37;;
19193;SDS011;9729;52.296;13.260;2023-02-20T00:24:33;7.20;;;4.10;;
19193;SDS011;9729;52.296;13.260;2023-02-20T00:26:59;17.07;;;4.00;;
19193;SDS011;9729;52.296;13.260;2023-02-20T00:29:27;9.53;;;3.80;;
19193;SDS011;9729;52.296;13.260;2023-02-20T00:31:54;12.10;;;5.60;;
19193;SDS011;9729;52.296;13.260;2023-02-20T00:34:22;11.63;;;4.77;;
19193;SDS011;9729;52.296;13.260;2023-02-20T00:36:53;14.83;;;4.70;;
19193;SDS011;9729;52.296;13.260;2023-02-20T00:39:19;11.20;;;4.40;;
19193;SDS011;9729;52.296;13.260;2023-02-20T00:41:46;5.77;;;4.13;;
19193;SDS011;9729;52.296;13.260;2023-02-20T00:44:12;14.60;;;4.60;;
19193;SDS011;9729;52.296;13.260;2023-02-20T00:46:40;10.17;;;4.90;;
19193;SDS011;9729;52.296;13.260;2023-02-20T00:49:09;9.60;;;4.90;;
19193;SDS011;9729;52.296;13.260;2023-02-20T00:51:35;12.50;;;4.37;;
19193;SDS011;9729;52.296;13.260;2023-02-20T00:54:02;5.77;;;4.27;;
19193;SDS011;9729;52.296;13.260;2023-02-20T00:56:28;12.63;;;5.23;;
19193;SDS011;9729;52.296;13.260;2023-02-20T00:58:55;6.00;;;4.20;;
19193;SDS011;9729;52.296;13.260;2023-02-20T01:01:21;13.00;;;4.67;;
19193;SDS011;9729;52.296;13.260;2023-02-20T01:03:50;8.93;;;5.07;;
19193;SDS011;9729;52.296;13.260;2023-02-20T01:06:16;13.63;;;5.30;;
19193;SDS011;9729;52.296;13.260;2023-02-20T01:08:43;8.00;;;4.73;;
19193;SDS011;9729;52.296;13.260;2023-02-20T01:11:11;11.57;;;5.00;;
19193;SDS011;9729;52.296;13.260;2023-02-20T01:13:37;14.47;;;4.73;;
19193;SDS011;9729;52.296;13.260;2023-02-20T01:16:04;9.97;;;4.57;;
19193;SDS011;9729;52.296;13.260;2023-02-20T01:18:31;10.30;;;4.70;;
19193;SDS011;9729;52.296;13.260;2023-02-20T01:20:58;15.57;;;6.27;;
19193;SDS011;9729;52.296;13.260;2023-02-20T01:23:25;12.90;;;4.67;;
19193;SDS011;9729;52.296;13.260;2023-02-20T01:25:51;11.63;;;4.97;;
19193;SDS011;9729;52.296;13.260;2023-02-20T01:28:18;13.43;;;5.57;;
19193;SDS011;9729;52.296;13.260;2023-02-20T01:30:44;17.03;;;6.10;;
19193;SDS011;9729;52.296;13.260;2023-02-20T01:33:12;18.10;;;5.00;;
19193;SDS011;9729;52.296;13.260;2023-02-20T01:35:39;9.03;;;4.63;;
19193;SDS011;9729;52.296;13.260;2023-02-20T01:38:07;13.60;;;4.93;;
19193;SDS011;9729;52.296;13.260;2023-02-20T01:40:33;11.20;;;4.60;;
19193;SDS011;9729;52.296;13.260;2023-02-20T01:43:00;11.57;;;4.70;;
19193;SDS011;9729;52.296;13.260;2023-02-20T01:45:29;10.90;;;5.90;;
19193;SDS011;9729;52.296;13.260;2023-02-20T01:47:58;9.87;;;5.03;;
19193;SDS011;9729;52.296;13.260;2023-02-20T01:50:26;13.73;;;5.90;;
19193;SDS011;9729;52.296;13.260;2023-02-20T01:52:55;8.23;;;4.73;;
19193;SDS011;9729;52.296;13.260;2023-02-20T01:55:26;10.30;;;4.93;;
19193;SDS011;9729;52.296;13.260;2023-02-20T01:57:55;14.47;;;5.33;;
19193;SDS011;9729;52.296;13.260;2023-02-20T02:00:23;9.77;;;5.20;;
19193;SDS011;9729;52.296;13.260;2023-02-20T02:02:52;12.10;;;5.60;;
19193;SDS011;9729;52.296;13.260;2023-02-20T02:05:22;15.50;;;5.73;;
19193;SDS011;9729;52.296;13.260;2023-02-20T02:07:49;12.20;;;5.60;;
19193;SDS011;9729;52.296;13.260;2023-02-20T02:13:39;19.13;;;5.50;;
19193;SDS011;9729;52.296;13.260;2023-02-20T02:16:10;11.23;;;5.90;;
19193;SDS011;9729;52.296;13.260;2023-02-20T02:18:54;12.60;;;6.07;;
19193;SDS011;9729;52.296;13.260;2023-02-20T02:24:34;17.67;;;5.37;;
19193;SDS011;9729;52.296;13.260;2023-02-20T02:33:20;13.77;;;6.10;;
19193;SDS011;9729;52.296;13.260;2023-02-20T02:38:55;16.90;;;7.90;;
19193;SDS011;9729;52.296;13.260;2023-02-20T02:41:26;8.93;;;5.77;;
19193;SDS011;9729;52.296;13.260;2023-02-20T02:43:58;11.50;;;6.23;;
19193;SDS011;9729;52.296;13.260;2023-02-20T02:46:26;13.43;;;6.40;;
19193;SDS011;9729;52.296;13.260;2023-02-20T02:49:00;12.93;;;6.10;;
19193;SDS011;9729;52.296;13.260;2023-02-20T02:51:35;13.87;;;6.23;;
19193;SDS011;9729;52.296;13.260;2023-02-20T02:54:10;13.67;;;6.00;;
19193;SDS011;9729;52.296;13.260;2023-02-20T02:56:40;11.20;;;6.03;;
19193;SDS011;9729;52.296;13.260;2023-02-20T02:59:10;10.93;;;6.47;;
19193;SDS011;9729;52.296;13.260;2023-02-20T03:01:38;11.83;;;6.80;;
19193;SDS011;9729;52.296;13.260;2023-02-20T03:04:08;11.13;;;6.03;;
19193;SDS011;9729;52.296;13.260;2023-02-20T03:06:37;18.13;;;6.03;;
19193;SDS011;9729;52.296;13.260;2023-02-20T03:09:05;18.17;;;6.50;;
19193;SDS011;9729;52.296;13.260;2023-02-20T03:11:39;10.70;;;5.50;;
19193;SDS011;9729;52.296;13.260;2023-02-20T03:14:06;11.33;;;6.13;;
19193;SDS011;9729;52.296;13.260;2023-02-20T03:16:55;10.53;;;6.00;;
19193;SDS011;9729;52.296;13.260;2023-02-20T03:19:24;13.83;;;5.87;;
19193;SDS011;9729;52.296;13.260;2023-02-20T03:21:55;13.03;;;6.80;;
19193;SDS011;9729;52.296;13.260;2023-02-20T03:24:22;12.07;;;5.80;;
19193;SDS011;9729;52.296;13.260;2023-02-20T03:26:49;11.60;;;5.50;;
19193;SDS011;9729;52.296;13.260;2023-02-20T03:29:19;11.47;;;6.57;;
19193;SDS011;9729;52.296;13.260;2023-02-20T03:31:52;9.23;;;5.40;;
19193;SDS011;9729;52.296;13.260;2023-02-20T03:34:37;10.10;;;5.83;;
19193;SDS011;9729;52.296;13.260;2023-02-20T03:37:24;15.10;;;5.70;;
19193;SDS011;9729;52.296;13.260;2023-02-20T03:40:09;12.70;;;6.17;;
19193;SDS011;9729;52.296;13.260;2023-02-20T03:42:56;8.87;;;5.10;;
19193;SDS011;9729;52.296;13.260;2023-02-20T03:45:43;14.00;;;6.13;;
19193;SDS011;9729;52.296;13.260;2023-02-20T03:48:13;14.83;;;5.60;;
19193;SDS011;9729;52.296;13.260;2023-02-20T03:50:41;9.63;;;6.43;;
19193;SDS011;9729;52.296;13.260;2023-02-20T03:53:10;11.90;;;6.17;;
19193;SDS011;9729;52.296;13.260;2023-02-20T03:55:37;13.23;;;6.20;;
19193;SDS011;9729;52.296;13.260;2023-02-20T03:58:04;10.60;;;6.43;;
19193;SDS011;9729;52.296;13.260;2023-02-20T04:00:34;12.30;;;6.10;;
19193;SDS011;9729;52.296;13.260;2023-02-20T04:03:05;12.70;;;6.40;;
19193;SDS011;9729;52.296;13.260;2023-02-20T04:05:34;9.40;;;6.13;;
19193;SDS011;9729;52.296;13.260;2023-02-20T04:08:04;12.47;;;6.73;;
19193;SDS011;9729;52.296;13.260;2023-02-20T04:10:34;11.83;;;6.53;;
19193;SDS011;9729;52.296;13.260;2023-02-20T04:13:03;12.33;;;6.10;;
19193;SDS011;9729;52.296;13.260;2023-02-20T04:15:30;11.17;;;6.30;;
19193;SDS011;9729;52.296;13.260;2023-02-20T04:17:59;9.77;;;6.07;;
19193;SDS011;9729;52.296;13.260;2023-02-20T04:20:27;14.20;;;6.40;;
19193;SDS011;9729;52.296;13.260;2023-02-20T04:22:54;9.97;;;6.00;;
19193;SDS011;9729;52.296;13.260;2023-02-20T04:25:29;12.87;;;6.77;;
19193;SDS011;9729;52.296;13.260;2023-02-20T04:28:01;12.53;;;7.37;;
19193;SDS011;9729;52.296;13.260;2023-02-20T04:30:27;11.03;;;6.77;;
19193;SDS011;9729;52.296;13.260;2023-02-20T04:32:54;12.70;;;7.10;;
19193;SDS011;9729;52.296;13.260;2023-02-20T04:35:20;14.27;;;7.00;;
19193;SDS011;9729;52.296;13.260;2023-02-20T04:37:47;9.63;;;7.13;;
19193;SDS011;9729;52.296;13.260;2023-02-20T04:40:14;12.53;;;7.30;;
19193;SDS011;9729;52.296;13.260;2023-02-20T04:42:43;13.50;;;7.03;;
19193;SDS011;9729;52.296;13.260;2023-02-20T04:45:11;11.77;;;6.40;;
19193;SDS011;9729;52.296;13.260;2023-02-20T04:47:37;12.63;;;7.63;;
19193;SDS011;9729;52.296;13.260;2023-02-20T04:50:04;10.20;;;6.63;;
19193;SDS011;9729;52.296;13.260;2023-02-20T04:52:31;15.97;;;8.43;;
19193;SDS011;9729;52.296;13.260;2023-02-20T04:54:58;14.47;;;7.67;;
19193;SDS011;9729;52.296;13.260;2023-02-20T04:57:24;12.03;;;8.17;;
19193;SDS011;9729;52.296;13.260;2023-02-20T04:59:50;14.70;;;9.00;;
19193;SDS011;9729;52.296;13.260;2023-02-20T05:02:22;13.80;;;7.90;;
19193;SDS011;9729;52.296;13.260;2023-02-20T05:04:49;11.40;;;7.23;;
19193;SDS011;9729;52.296;13.260;2023-02-20T05:07:16;14.30;;;7.83;;
19193;SDS011;9729;52.296;13.260;2023-02-20T05:09:43;13.13;;;7.10;;
19193;SDS011;9729;52.296;13.260;2023-02-20T05:12:09;12.77;;;7.77;;
19193;SDS011;9729;52.296;13.260;2023-02-20T05:14:37;10.17;;;7.03;;
19193;SDS011;9729;52.296;13.260;2023-02-20T05:17:04;12.17;;;6.73;;
19193;SDS011;9729;52.296;13.260;2023-02-20T05:19:32;12.57;;;7.33;;
19193;SDS011;9729;52.296;13.260;2023-02-20T05:21:58;11.07;;;7.20;;
19193;SDS011;9729;52.296;13.260;2023-02-20T05:24:42;14.33;;;7.97;;
19193;SDS011;9729;52.296;13.260;2023-02-20T05:27:09;14.00;;;7.97;;
19193;SDS011;9729;52.296;13.260;2023-02-20T05:29:35;11.13;;;7.13;;
19193;SDS011;9729;52.296;13.260;2023-02-20T05:32:04;13.27;;;6.80;;
19193;SDS011;9729;52.296;13.260;2023-02-20T05:34:32;11.73;;;7.27;;
19193;SDS011;9729;52.296;13.260;2023-02-20T05:36:59;15.13;;;7.97;;
19193;SDS011;9729;52.296;13.260;2023-02-20T05:39:25;13.13;;;7.67;;
19193;SDS011;9729;52.296;13.260;2023-02-20T05:41:52;11.07;;;7.47;;
19193;SDS011;9729;52.296;13.260;2023-02-20T05:44:20;13.10;;;8.97;;
19193;SDS011;9729;52.296;13.260;2023-02-20T05:46:47;12.73;;;7.33;;
19193;SDS011;9729;52.296;13.260;2023-02-20T05:49:13;14.53;;;8.37;;
19193;SDS011;9729;52.296;13.260;2023-02-20T05:51:43;15.07;;;8.37;;
19193;SDS011;9729;52.296;13.260;2023-02-20T05:54:09;15.83;;;9.17;;
19193;SDS011;9729;52.296;13.260;2023-02-20T05:56:40;15.10;;;8.77;;
19193;SDS011;9729;52.296;13.260;2023-02-20T05:59:06;12.63;;;7.73;;
19193;SDS011;9729;52.296;13.260;2023-02-20T06:01:33;18.97;;;8.60;;
19193;SDS011;9729;52.296;13.260;2023-02-20T06:03:59;14.40;;;8.60;;
19193;SDS011;9729;52.296;13.260;2023-02-20T06:06:31;15.67;;;9.23;;
19193;SDS011;9729;52.296;13.260;2023-02-20T06:08:59;14.67;;;8.80;;
19193;SDS011;9729;52.296;13.260;2023-02-20T06:11:26;15.17;;;8.73;;
19193;SDS011;9729;52.296;13.260;2023-02-20T06:13:52;13.60;;;8.23;;
19193;SDS011;9729;52.296;13.260;2023-02-20T06:16:20;15.20;;;9.03;;
19193;SDS011;9729;52.296;13.260;2023-02-20T06:18:48;16.70;;;9.23;;
19193;SDS011;9729;52.296;13.260;2023-02-20T06:21:16;14.43;;;9.60;;
19193;SDS011;9729;52.296;13.260;2023-02-20T06:23:43;16.23;;;9.37;;
19193;SDS011;9729;52.296;13.260;2023-02-20T06:26:11;18.37;;;9.53;;
19193;SDS011;9729;52.296;13.260;2023-02-20T06:28:39;15.20;;;9.40;;
19193;SDS011;9729;52.296;13.260;2023-02-20T06:31:05;16.20;;;9.67;;
19193;SDS011;9729;52.296;13.260;2023-02-20T06:33:35;15.83;;;9.00;;
19193;SDS011;9729;52.296;13.260;2023-02-20T06:36:02;12.83;;;8.93;;
19193;SDS011;9729;52.296;13.260;2023-02-20T06:38:30;14.57;;;8.00;;
19193;SDS011;9729;52.296;13.260;2023-02-20T06:40:56;13.47;;;9.00;;
19193;SDS011;9729;52.296;13.260;2023-02-20T06:43:24;15.10;;;9.37;;
19193;SDS011;9729;52.296;13.260;2023-02-20T06:45:52;14.23;;;8.93;;
19193;SDS011;9729;52.296;13.260;2023-02-20T06:48:19;14.50;;;8.70;;
19193;SDS011;9729;52.296;13.260;2023-02-20T06:50:45;15.07;;;9.30;;
19193;SDS011;9729;52.296;13.260;2023-02-20T06:53:11;17.77;;;8.50;;
19193;SDS011;9729;52.296;13.260;2023-02-20T06:55:41;13.30;;;8.30;;
19193;SDS011;9729;52.296;13.260;2023-02-20T06:58:07;14.00;;;8.83;;
19193;SDS011;9729;52.296;13.260;2023-02-20T07:00:37;15.63;;;8.87;;
19193;SDS011;9729;52.296;13.260;2023-02-20T07:03:03;12.97;;;7.47;;
19193;SDS011;9729;52.296;13.260;2023-02-20T07:05:32;17.63;;;9.70;;
19193;SDS011;9729;52.296;13.260;2023-02-20T07:07:59;14.23;;;8.87;;
19193;SDS011;9729;52.296;13.260;2023-02-20T07:10:26;15.70;;;9.83;;
19193;SDS011;9729;52.296;13.260;2023-02-20T07:12:54;18.23;;;9.40;;
19193;SDS011;9729;52.296;13.260;2023-02-20T07:15:27;17.13;;;10.40;;
19193;SDS011;9729;52.296;13.260;2023-02-20T07:17:54;16.67;;;10.03;;
19193;SDS011;9729;52.296;13.260;2023-02-20T07:20:21;18.37;;;10.57;;
19193;SDS011;9729;52.296;13.260;2023-02-20T07:22:48;16.57;;;10.17;;
19193;SDS011;9729;52.296;13.260;2023-02-20T07:25:18;15.10;;;10.00;;
19193;SDS011;9729;52.296;13.260;2023-02-20T07:27:44;18.27;;;9.50;;
19193;SDS011;9729;52.296;13.260;2023-02-20T07:30:11;13.37;;;8.73;;
19193;SDS011;9729;52.296;13.260;2023-02-20T07:32:38;13.60;;;9.33;;
19193;SDS011;9729;52.296;13.260;2023-02-20T07:35:06;15.33;;;8.10;;
19193;SDS011;9729;52.296;13.260;2023-02-20T07:37:36;15.50;;;9.57;;
19193;SDS011;9729;52.296;13.260;2023-02-20T07:40:05;15.33;;;9.87;;
19193;SDS011;9729;52.296;13.260;2023-02-20T07:42:33;13.20;;;8.33;;
19193;SDS011;9729;52.296;13.260;2023-02-20T07:44:59;13.97;;;8.97;;
19193;SDS011;9729;52.296;13.260;2023-02-20T07:47:26;13.00;;;8.80;;
19193;SDS011;9729;52.296;13.260;2023-02-20T07:49:56;13.37;;;8.67;;
19193;SDS011;9729;52.296;13.260;2023-02-20T07:52:24;17.10;;;9.13;;
19193;SDS011;9729;52.296;13.260;2023-02-20T07:54:52;16.00;;;8.13;;
19193;SDS011;9729;52.296;13.260;2023-02-20T07:57:18;12.37;;;7.93;;
19193;SDS011;9729;52.296;13.260;2023-02-20T07:59:45;13.57;;;7.90;;
19193;SDS011;9729;52.296;13.260;2023-02-20T08:02:15;13.60;;;8.00;;
19193;SDS011;9729;52.296;13.260;2023-02-20T08:04:41;15.53;;;8.30;;
19193;SDS011;9729;52.296;13.260;2023-02-20T08:07:08;12.57;;;7.90;;
19193;SDS011;9729;52.296;13.260;2023-02-20T08:09:36;14.37;;;8.10;;
19193;SDS011;9729;52.296;13.260;2023-02-20T08:12:02;14.63;;;7.80;;
19193;SDS011;9729;52.296;13.260;2023-02-20T08:14:29;12.57;;;7.47;;
19193;SDS011;9729;52.296;13.260;2023-02-20T08:16:59;17.03;;;7.10;;
19193;SDS011;9729;52.296;13.260;2023-02-20T08:19:26;16.40;;;7.17;;
19193;SDS011;9729;52.296;13.260;2023-02-20T08:21:52;11.50;;;7.07;;
19193;SDS011;9729;52.296;13.260;2023-02-20T08:24:19;10.53;;;6.83;;
19193;SDS011;9729;52.296;13.260;2023-02-20T08:26:47;10.67;;;7.00;;
19193;SDS011;9729;52.296;13.260;2023-02-20T08:29:14;10.97;;;5.93;;
19193;SDS011;9729;52.296;13.260;2023-02-20T08:31:41;12.10;;;7.13;;
19193;SDS011;9729;52.296;13.260;2023-02-20T08:34:07;11.97;;;6.37;;
19193;SDS011;9729;52.296;13.260;2023-02-20T08:36:34;9.23;;;6.20;;
19193;SDS011;9729;52.296;13.260;2023-02-20T08:39:03;9.70;;;6.40;;
19193;SDS011;9729;52.296;13.260;2023-02-20T08:41:30;10.50;;;5.97;;
19193;SDS011;9729;52.296;13.260;2023-02-20T08:43:58;11.17;;;5.93;;
19193;SDS011;9729;52.296;13.260;2023-02-20T08:46:24;10.27;;;6.03;;
19193;SDS011;9729;52.296;13.260;2023-02-20T08:48:51;9.93;;;5.83;;
19193;SDS011;9729;52.296;13.260;2023-02-20T08:51:18;11.50;;;6.47;;
19193;SDS011;9729;52.296;13.260;2023-02-20T08:53:45;8.97;;;5.63;;
19193;SDS011;9729;52.296;13.260;2023-02-20T08:56:12;9.63;;;5.23;;
19193;SDS011;9729;52.296;13.260;2023-02-20T08:58:38;8.77;;;5.13;;
19193;SDS011;9729;52.296;13.260;2023-02-20T09:01:10;9.73;;;5.47;;
19193;SDS011;9729;52.296;13.260;2023-02-20T09:03:37;7.10;;;5.20;;
19193;SDS011;9729;52.296;13.260;2023-02-20T09:06:05;8.63;;;4.00;;
19193;SDS011;9729;52.296;13.260;2023-02-20T09:08:32;7.67;;;5.47;;
19193;SDS011;9729;52.296;13.260;2023-02-20T09:11:01;9.00;;;4.87;;
19193;SDS011;9729;52.296;13.260;2023-02-20T09:13:28;10.53;;;6.00;;
19193;SDS011;9729;52.296;13.260;2023-02-20T09:15:54;10.20;;;5.53;;
19193;SDS011;9729;52.296;13.260;2023-02-20T09:18:22;7.97;;;5.00;;
19193;SDS011;9729;52.296;13.260;2023-02-20T09:20:48;7.53;;;4.87;;
19193;SDS011;9729;52.296;13.260;2023-02-20T09:23:15;9.77;;;5.07;;
19193;SDS011;9729;52.296;13.260;2023-02-20T09:25:41;9.93;;;5.07;;
19193;SDS011;9729;52.296;13.260;2023-02-20T09:28:08;7.50;;;4.87;;
19193;SDS011;9729;52.296;13.260;2023-02-20T09:30:34;9.93;;;4.03;;
19193;SDS011;9729;52.296;13.260;2023-02-20T09:33:01;7.77;;;5.07;;
19193;SDS011;9729;52.296;13.260;2023-02-20T09:35:29;7.93;;;4.57;;
19193;SDS011;9729;52.296;13.260;2023-02-20T09:37:56;11.87;;;4.97;;
19193;SDS011;9729;52.296;13.260;2023-02-20T09:40:23;5.37;;;3.63;;
19193;SDS011;9729;52.296;13.260;2023-02-20T09:42:54;6.57;;;4.50;;
19193;SDS011;9729;52.296;13.260;2023-02-20T09:45:30;6.77;;;4.77;;
19193;SDS011;9729;52.296;13.260;2023-02-20T09:48:04;7.87;;;4.43;;
19193;SDS011;9729;52.296;13.260;2023-02-20T09:50:41;10.20;;;3.80;;
19193;SDS011;9729;52.296;13.260;2023-02-20T09:53:13;8.97;;;4.13;;
19193;SDS011;9729;52.296;13.260;2023-02-20T09:55:43;6.60;;;4.40;;
19193;SDS011;9729;52.296;13.260;2023-02-20T09:58:18;8.63;;;4.23;;
19193;SDS011;9729;52.296;13.260;2023-02-20T10:00:47;7.50;;;3.90;;
19193;SDS011;9729;52.296;13.260;2023-02-20T10:03:16;9.30;;;4.73;;
19193;SDS011;9729;52.296;13.260;2023-02-20T10:05:47;5.93;;;3.87;;
19193;SDS011;9729;52.296;13.260;2023-02-20T10:08:17;5.30;;;3.63;;
19193;SDS011;9729;52.296;13.260;2023-02-20T10:10:47;6.00;;;4.10;;
19193;SDS011;9729;52.296;13.260;2023-02-20T10:13:18;6.60;;;3.67;;
19193;SDS011;9729;52.296;13.260;2023-02-20T10:15:55;6.70;;;4.03;;
19193;SDS011;9729;52.296;13.260;2023-02-20T10:18:26;5.27;;;3.53;;
19193;SDS011;9729;52.296;13.260;2023-02-20T10:21:00;6.63;;;3.80;;
19193;SDS011;9729;52.296;13.260;2023-02-20T10:23:32;5.90;;;4.07;;
19193;SDS011;9729;52.296;13.260;2023-02-20T10:26:04;6.00;;;3.67;;
19193;SDS011;9729;52.296;13.260;2023-02-20T10:28:32;5.07;;;3.47;;
19193;SDS011;9729;52.296;13.260;2023-02-20T10:31:01;4.77;;;3.83;;
19193;SDS011;9729;52.296;13.260;2023-02-20T10:33:35;4.37;;;3.20;;
19193;SDS011;9729;52.296;13.260;2023-02-20T10:36:08;6.10;;;3.17;;
19193;SDS011;9729;52.296;13.260;2023-02-20T10:38:40;5.87;;;3.50;;
19193;SDS011;9729;52.296;13.260;2023-02-20T10:41:11;6.47;;;3.23;;
19193;SDS011;9729;52.296;13.260;2023-02-20T10:43:45;6.70;;;3.50;;
19193;SDS011;9729;52.296;13.260;2023-02-20T10:46:16;8.13;;;3.90;;
19193;SDS011;9729;52.296;13.260;2023-02-20T10:48:45;6.37;;;3.13;;
19193;SDS011;9729;52.296;13.260;2023-02-20T10:51:14;4.60;;;3.13;;
19193;SDS011;9729;52.296;13.260;2023-02-20T10:53:44;6.37;;;3.50;;
19193;SDS011;9729;52.296;13.260;2023-02-20T10:56:13;7.30;;;3.63;;
19193;SDS011;9729;52.296;13.260;2023-02-20T10:58:44;6.30;;;4.40;;
19193;SDS011;9729;52.296;13.260;2023-02-20T11:01:17;5.60;;;3.30;;
19193;SDS011;9729;52.296;13.260;2023-02-20T11:03:48;5.37;;;3.37;;
19193;SDS011;9729;52.296;13.260;2023-02-20T11:06:22;5.13;;;3.60;;
19193;SDS011;9729;52.296;13.260;2023-02-20T11:08:55;5.83;;;3.43;;
19193;SDS011;9729;52.296;13.260;2023-02-20T11:11:29;7.83;;;3.63;;
19193;SDS011;9729;52.296;13.260;2023-02-20T11:13:58;4.47;;;3.47;;
19193;SDS011;9729;52.296;13.260;2023-02-20T11:16:27;8.20;;;3.60;;
19193;SDS011;9729;52.296;13.260;2023-02-20T11:19:00;5.10;;;3.27;;
19193;SDS011;9729;52.296;13.260;2023-02-20T11:21:34;5.50;;;3.60;;
19193;SDS011;9729;52.296;13.260;2023-02-20T11:27:01;5.23;;;3.47;;
19193;SDS011;9729;52.296;13.260;2023-02-20T11:29:37;3.13;;;2.73;;
19193;SDS011;9729;52.296;13.260;2023-02-20T11:32:23;7.10;;;4.23;;
19193;SDS011;9729;52.296;13.260;2023-02-20T11:40:44;6.77;;;3.57;;
19193;SDS011;9729;52.296;13.260;2023-02-20T11:43:20;5.43;;;3.40;;
19193;SDS011;9729;52.296;13.260;2023-02-20T11:45:49;8.07;;;3.77;;
19193;SDS011;9729;52.296;13.260;2023-02-20T11:48:19;7.73;;;4.60;;
19193;SDS011;9729;52.296;13.260;2023-02-20T11:50:47;11.67;;;4.40;;
19193;SDS011;9729;52.296;13.260;2023-02-20T11:53:20;4.77;;;3.40;;
19193;SDS011;9729;52.296;13.260;2023-02-20T11:55:48;5.13;;;3.80;;
19193;SDS011;9729;52.296;13.260;2023-02-20T11:58:32;11.97;;;4.17;;
19193;SDS011;9729;52.296;13.260;2023-02-20T12:00:59;8.20;;;4.00;;
19193;SDS011;9729;52.296;13.260;2023-02-20T12:03:26;6.30;;;4.13;;
19193;SDS011;9729;52.296;13.260;2023-02-20T12:05:54;7.37;;;3.80;;
19193;SDS011;9729;52.296;13.260;2023-02-20T12:08:31;7.47;;;4.23;;
19193;SDS011;9729;52.296;13.260;2023-02-20T12:11:02;7.17;;;4.43;;
19193;SDS011;9729;52.296;13.260;2023-02-20T12:13:31;10.63;;;5.97;;
19193;SDS011;9729;52.296;13.260;2023-02-20T12:16:05;12.83;;;4.70;;
19193;SDS011;9729;52.296;13.260;2023-02-20T12:18:44;6.63;;;4.37;;
19193;SDS011;9729;52.296;13.260;2023-02-20T12:21:17;6.40;;;5.20;;
19193;SDS011;9729;52.296;13.260;2023-02-20T12:23:53;8.33;;;4.83;;
19193;SDS011;9729;52.296;13.260;2023-02-20T12:26:41;9.33;;;5.00;;
19193;SDS011;9729;52.296;13.260;2023-02-20T12:32:09;12.07;;;4.53;;
19193;SDS011;9729;52.296;13.260;2023-02-20T12:34:49;13.40;;;6.63;;
19193;SDS011;9729;52.296;13.260;2023-02-20T12:37:23;9.77;;;5.20;;
19193;SDS011;9729;52.296;13.260;2023-02-20T12:40:06;13.97;;;5.70;;
19193;SDS011;9729;52.296;13.260;2023-02-20T12:42:42;13.13;;;5.13;;
19193;SDS011;9729;52.296;13.260;2023-02-20T12:45:17;7.27;;;4.83;;
19193;SDS011;9729;52.296;13.260;2023-02-20T12:47:52;10.83;;;5.80;;
19193;SDS011;9729;52.296;13.260;2023-02-20T12:50:39;11.43;;;6.00;;
19193;SDS011;9729;52.296;13.260;2023-02-20T12:56:02;11.10;;;5.97;;
19193;SDS011;9729;52.296;13.260;2023-02-20T12:58:42;10.63;;;5.70;;
19193;SDS011;9729;52.296;13.260;2023-02-20T13:01:13;13.10;;;6.37;;
19193;SDS011;9729;52.296;13.260;2023-02-20T13:03:48;9.80;;;6.57;;
19193;SDS011;9729;52.296;13.260;2023-02-20T13:06:20;15.13;;;6.63;;
19193;SDS011;9729;52.296;13.260;2023-02-20T13:08:53;11.50;;;6.73;;
19193;SDS011;9729;52.296;13.260;2023-02-20T13:11:29;13.03;;;7.53;;
19193;SDS011;9729;52.296;13.260;2023-02-20T13:14:00;15.00;;;7.23;;
19193;SDS011;9729;52.296;13.260;2023-02-20T13:16:33;12.47;;;8.00;;
19193;SDS011;9729;52.296;13.260;2023-02-20T13:19:09;11.17;;;7.20;;
19193;SDS011;9729;52.296;13.260;2023-02-20T13:21:41;15.37;;;7.27;;
19193;SDS011;9729;52.296;13.260;2023-02-20T13:26:55;14.83;;;7.70;;
19193;SDS011;9729;52.296;13.260;2023-02-20T13:29:22;11.77;;;8.17;;
19193;SDS011;9729;52.296;13.260;2023-02-20T13:31:52;20.43;;;8.00;;
19193;SDS011;9729;52.296;13.260;2023-02-20T13:34:32;16.57;;;8.33;;
19193;SDS011;9729;52.296;13.260;2023-02-20T13:37:04;16.73;;;7.77;;
19193;SDS011;9729;52.296;13.260;2023-02-20T13:42:31;15.77;;;9.53;;
19193;SDS011;9729;52.296;13.260;2023-02-20T13:45:01;18.03;;;11.00;;
19193;SDS011;9729;52.296;13.260;2023-02-20T13:47:32;17.53;;;10.57;;
19193;SDS011;9729;52.296;13.260;2023-02-20T13:53:06;16.57;;;10.37;;
19193;SDS011;9729;52.296;13.260;2023-02-20T13:55:32;17.80;;;10.93;;
19193;SDS011;9729;52.296;13.260;2023-02-20T13:58:09;16.07;;;10.27;;
19193;SDS011;9729;52.296;13.260;2023-02-20T14:00:45;26.17;;;11.47;;
19193;SDS011;9729;52.296;13.260;2023-02-20T14:03:17;20.47;;;11.63;;
19193;SDS011;9729;52.296;13.260;2023-02-20T14:05:45;18.37;;;12.17;;
19193;SDS011;9729;52.296;13.260;2023-02-20T14:08:17;16.53;;;10.83;;
19193;SDS011;9729;52.296;13.260;2023-02-20T14:10:44;18.87;;;11.53;;
19193;SDS011;9729;52.296;13.260;2023-02-20T14:13:17;15.87;;;10.17;;
19193;SDS011;9729;52.296;13.260;2023-02-20T14:15:45;19.50;;;10.07;;
19193;SDS011;9729;52.296;13.260;2023-02-20T14:18:15;19.93;;;9.67;;
19193;SDS011;9729;52.296;13.260;2023-02-20T14:20:42;16.97;;;10.70;;
19193;SDS011;9729;52.296;13.260;2023-02-20T14:23:22;16.27;;;10.73;;
19193;SDS011;9729;52.296;13.260;2023-02-20T14:25:56;15.33;;;9.53;;
19193;SDS011;9729;52.296;13.260;2023-02-20T14:28:25;13.70;;;8.57;;
19193;SDS011;9729;52.296;13.260;2023-02-20T14:31:02;14.80;;;10.43;;
19193;SDS011;9729;52.296;13.260;2023-02-20T14:33:30;18.67;;;9.93;;
19193;SDS011;9729;52.296;13.260;2023-02-20T14:36:00;19.07;;;9.43;;
19193;SDS011;9729;52.296;13.260;2023-02-20T14:38:36;15.47;;;10.23;;
19193;SDS011;9729;52.296;13.260;2023-02-20T14:41:11;15.97;;;9.63;;
19193;SDS011;9729;52.296;13.260;2023-02-20T14:43:39;16.63;;;10.30;;
19193;SDS011;9729;52.296;13.260;2023-02-20T14:46:06;15.17;;;9.70;;
19193;SDS011;9729;52.296;13.260;2023-02-20T14:48:34;13.27;;;9.03;;
19193;SDS011;9729;52.296;13.260;2023-02-20T14:51:12;13.00;;;8.60;;
19193;SDS011;9729;52.296;13.260;2023-02-20T14:53:41;12.47;;;8.90;;
19193;SDS011;9729;52.296;13.260;2023-02-20T14:56:08;14.10;;;8.63;;
19193;SDS011;9729;52.296;13.260;2023-02-20T14:58:36;12.83;;;8.20;;
19193;SDS011;9729;52.296;13.260;2023-02-20T15:01:13;15.93;;;8.40;;
19193;SDS011;9729;52.296;13.260;2023-02-20T15:03:45;13.73;;;7.83;;
19193;SDS011;9729;52.296;13.260;2023-02-20T15:06:23;10.90;;;8.00;;
19193;SDS011;9729;52.296;13.260;2023-02-20T15:08:54;14.30;;;7.87;;
19193;SDS011;9729;52.296;13.260;2023-02-20T15:11:22;12.53;;;8.33;;
19193;SDS011;9729;52.296;13.260;2023-02-20T15:13:49;14.33;;;8.93;;
19193;SDS011;9729;52.296;13.260;2023-02-20T15:16:19;12.93;;;8.23;;
19193;SDS011;9729;52.296;13.260;2023-02-20T15:18:50;14.77;;;8.53;;
19193;SDS011;9729;52.296;13.260;2023-02-20T15:21:30;16.27;;;9.20;;
19193;SDS011;9729;52.296;13.260;2023-02-20T15:24:11;15.40;;;8.13;;
19193;SDS011;9729;52.296;13.260;2023-02-20T15:26:40;12.83;;;7.73;;
19193;SDS011;9729;52.296;13.260;2023-02-20T15:29:18;12.47;;;7.80;;
19193;SDS011;9729;52.296;13.260;2023-02-20T15:31:54;13.33;;;8.33;;